Terminal Aerodrome Forecast
Issued by NWS Lake Charles, LA

Home | Current Version | Previous Version | Text Only | Print | Product List | Glossary On
Versions: 1 2 3 4 5 6 7 8 9 10 11 12 13 14 15
000
FTUS44 KLCH 261140
TAFLFT
TAF
KLFT 261140Z 2612/2712 18008G13KT P6SM SCT015 BKN035
      TEMPO 2612/2613 BKN025
     FM261500 18014G22KT P6SM OVC025
     FM261800 19018G28KT P6SM VCSH SCT025 BKN035
      TEMPO 2623/2703 2SM TSRA OVC013CB
     FM270600 33011KT P6SM FEW250=

USA.gov is the U.S. government's official web portal to all federal, state and local government web resources and services.